DYOM » Missions

Uploaded Missions Overview

29368 missions found, Pages: 1 2 3 4 5 ... 588
MissionNameAuthorLast UpdateRatingViewsDownloadsCommentsTrailers
El Lider (Español) (Spanish)proPVPgamers_YTOct 14 2017, 20:33-151100
Las Drogas Te MatanVigilantes20Oct 14 2017, 20:22-141100
El robo de la camioneta (ESPAÑOL)proPVPgamers_YTOct 14 2017, 17:36-13900
The Walking: O inicioMistersSmokeOct 14 2017, 17:22-17510
Swat Mission 1Siatkarz2Oct 14 2017, 15:26-361300
(Prima Misiune din Storyline) Balada luiSuperBoy_ROOct 14 2017, 15:04-161101
[MFS Corrida] Entre a Santa e o MissionaRedOct 14 2017, 14:52543830340
(MAR)PhSoldier last fight to the Maute Markandreirico2Oct 14 2017, 13:41-14610
Philippines Soldier last fight to the MaMarkandreirico2Oct 14 2017, 13:08-121200
The Game: Chapter 01, Mission 05THBPOct 14 2017, 07:44-171600
A TempestadeWiindson.Oct 14 2017, 01:34-782800
AdnanBro (mission)AdnanBroOct 14 2017, 01:23-322511
Historia Crips CZ.2KowalOct 13 2017, 23:51-21301
carandiru.samugamer.Oct 13 2017, 23:35-161800
Historia Crips CZ.1KowalOct 13 2017, 22:30-29301
o fim do big smoke.samugamer.Oct 13 2017, 21:28-151000
AfacereaSuperBoy_ROOct 13 2017, 21:21-12300
O perigo: CHEGADAMistersSmokeOct 13 2017, 21:18-351500
Anioł StróżToront27Oct 13 2017, 20:41434510
reforço policial pt1samugamer.Oct 13 2017, 19:38-10300
A Nagy Polgár Jenő küldetés E1SunTechOct 13 2017, 18:49-8300
matando invasores pt1.samugamer.Oct 13 2017, 18:20-11500
policia vs ladrao parti 1 minigamescreper555_gamesOct 13 2017, 18:14-1036510
mini game Atualizaçãocreper555_gamesOct 13 2017, 18:14-826210
O Resgate - Parte 1BrasilDyomOct 13 2017, 18:10-504920
O Resgate - Parte 1BrasilDyomOct 13 2017, 18:09-191800
roubo a loja de armas pt1samugamer.Oct 13 2017, 17:38-8900
Police Story part 1Police2626Oct 13 2017, 17:09-181100
O Resgate - Parte 3BrasilDyomOct 13 2017, 16:55-241630
O primeiro tiro parte2GACRAFTOct 13 2017, 16:19-8300
Historia Bloods!KowalOct 13 2017, 16:14-101100
briga de praia.samugamer.Oct 13 2017, 15:50-11300
o fim do trafico !samugamer.Oct 13 2017, 14:48-13800
ISIS Fighter!!!Holy_schiet95Oct 13 2017, 14:14-12400
o atake dos ballas !samugamer.Oct 13 2017, 12:58-16720
Street FightDYOMER99Oct 13 2017, 07:47-141300
Groove St. Fight Night (Boxing mission)niko_juriOct 12 2017, 23:363565900
[PL] NapadxFr3sHOct 12 2017, 23:11-12300
atake no observatorio !samugamer.Oct 12 2017, 21:50-141310
(Curta)BallasBrasilDyomOct 12 2017, 21:43-111100
Dona luci Parte [FINAL]BrasilDyomOct 12 2017, 21:25-7300
Dona Luci Parte 6BrasilDyomOct 12 2017, 21:24-6300
Dona Luci Parte 5BrasilDyomOct 12 2017, 21:24-5300
Dona Luci Parte 4BrasilDyomOct 12 2017, 21:23-6300
Dona Luci Parte 3BrasilDyomOct 12 2017, 21:22-5600
Dona Luci Parte 2BrasilDyomOct 12 2017, 21:22-8300
Dona LuciBrasilDyomOct 12 2017, 21:21-11600
Dia a Dia de Trabalhador (Parte 3) PT-BRBrasilDyomOct 12 2017, 21:17-8200
(Curta)K A R A T E BrasilDyomOct 12 2017, 21:13-2100
FaculdadeBrasilDyomOct 12 2017, 21:08-7400